Time;durP1;ratioP1;P1;durP2;ratioP2;P2;SDS_P1;SDS_P2;PMS_P1;PMS_P2;Temp;Humidity;BMP_temperature;BMP_pressure;BME280_temperature;BME280_humidity;BME280_pressure;Samples;Min_cycle;Max_cycle;Signal;HPM_P1;HPM_P2
2021/05/13 00:01:52;;;;;;;14.05;11.27;;;10.30;99.90;;;;;;4894269;29;20104;-80
2021/05/13 00:04:20;;;;;;;14.70;12.45;;;10.30;99.90;;;;;;4878548;29;20041;-80
2021/05/13 00:06:49;;;;;;;16.98;13.18;;;10.30;99.90;;;;;;4878983;29;20048;-80
2021/05/13 00:09:16;;;;;;;17.67;12.77;;;10.20;99.90;;;;;;4878637;29;20076;-80
2021/05/13 00:11:47;;;;;;;17.25;12.82;;;10.20;99.90;;;;;;4878785;29;20139;-80
2021/05/13 00:14:20;;;;;;;18.20;13.77;;;10.20;99.90;;;;;;4879162;29;20052;-79
2021/05/13 00:16:53;;;;;;;17.88;12.98;;;10.10;99.90;;;;;;4878652;29;20112;-80
2021/05/13 00:19:25;;;;;;;16.50;13.38;;;10.10;99.90;;;;;;4878760;29;20439;-80
2021/05/13 00:21:53;;;;;;;19.80;14.68;;;10.00;99.90;;;;;;4894466;29;20126;-80
2021/05/13 00:24:20;;;;;;;18.42;14.35;;;10.00;99.90;;;;;;4879023;29;20052;-81
2021/05/13 00:26:58;;;;;;;18.85;14.85;;;10.00;99.90;;;;;;4878569;29;20056;-80
2021/05/13 00:29:27;;;;;;;19.53;15.23;;;10.00;99.90;;;;;;4893989;29;20041;-80
2021/05/13 00:31:54;;;;;;;18.85;13.88;;;9.90;99.90;;;;;;4878482;29;20048;-80
2021/05/13 00:34:22;;;;;;;18.15;14.43;;;9.90;99.90;;;;;;4878503;29;20056;-80
2021/05/13 00:36:50;;;;;;;15.77;12.27;;;9.90;99.90;;;;;;4878593;29;20051;-80
2021/05/13 00:39:17;;;;;;;19.75;14.60;;;9.90;99.90;;;;;;4878546;29;20583;-80
2021/05/13 00:41:50;;;;;;;18.17;14.33;;;10.00;99.90;;;;;;4893034;29;20053;-80
2021/05/13 00:44:18;;;;;;;17.77;14.13;;;10.10;99.90;;;;;;4878731;29;20088;-80
2021/05/13 00:46:45;;;;;;;17.83;13.20;;;10.10;99.90;;;;;;4878422;29;20056;-80
2021/05/13 00:49:16;;;;;;;16.25;12.85;;;10.20;99.90;;;;;;4878413;29;20048;-79
2021/05/13 00:51:45;;;;;;;17.77;13.68;;;10.20;99.90;;;;;;4878639;29;20511;-80
2021/05/13 00:54:13;;;;;;;17.05;13.57;;;10.20;99.90;;;;;;4893841;29;20051;-80
2021/05/13 00:56:46;;;;;;;18.85;13.43;;;10.20;99.90;;;;;;4879048;29;20044;-80
2021/05/13 00:59:23;;;;;;;16.23;13.43;;;10.10;99.90;;;;;;4897127;29;20124;-80
2021/05/13 01:01:55;;;;;;;16.90;13.82;;;10.00;99.90;;;;;;4888222;29;20119;-80
2021/05/13 01:04:23;;;;;;;16.80;13.35;;;10.10;99.90;;;;;;4887963;29;20419;-80
2021/05/13 01:06:51;;;;;;;18.27;13.98;;;10.10;99.90;;;;;;4901681;29;20052;-79
2021/05/13 01:09:23;;;;;;;16.27;12.43;;;10.10;99.90;;;;;;4878848;29;20143;-80
2021/05/13 01:12:01;;;;;;;16.42;13.38;;;10.10;99.90;;;;;;4894453;29;20063;-80
2021/05/13 01:19:50;;;;;;;15.80;13.65;;;10.00;99.90;;;;;;4898114;29;20147;-79
2021/05/13 01:22:25;;;;;;;18.05;13.77;;;9.90;99.90;;;;;;4899431;29;20076;-80
2021/05/13 01:24:53;;;;;;;18.10;13.48;;;9.90;99.90;;;;;;4882935;29;20048;-80
2021/05/13 01:27:21;;;;;;;17.85;13.77;;;9.90;99.90;;;;;;4898509;29;20048;-79
2021/05/13 01:29:56;;;;;;;17.00;13.55;;;9.90;99.90;;;;;;4882813;29;20049;-80
2021/05/13 01:32:23;;;;;;;18.90;13.02;;;9.90;99.90;;;;;;4882477;29;20130;-80
2021/05/13 01:34:51;;;;;;;17.35;13.85;;;9.90;99.90;;;;;;4882635;29;20044;-79
2021/05/13 01:37:23;;;;;;;18.13;14.02;;;9.80;99.90;;;;;;4882448;29;20056;-79
2021/05/13 01:39:51;;;;;;;18.38;13.80;;;9.80;99.90;;;;;;4881908;29;20535;-79
2021/05/13 01:42:23;;;;;;;14.20;11.98;;;9.80;99.90;;;;;;4897835;29;20052;-80
2021/05/13 01:44:56;;;;;;;16.83;12.65;;;9.70;99.90;;;;;;4882026;29;20058;-80
2021/05/13 01:47:35;;;;;;;17.25;13.98;;;9.60;99.90;;;;;;4882690;29;20135;-80
2021/05/13 01:50:04;;;;;;;17.67;13.90;;;9.50;99.90;;;;;;4897649;29;20048;-79
2021/05/13 01:52:36;;;;;;;20.08;13.07;;;9.40;99.90;;;;;;4897448;29;20044;-79
2021/05/13 01:55:04;;;;;;;17.17;13.57;;;9.40;99.90;;;;;;4898064;29;20045;-79
2021/05/13 01:57:36;;;;;;;17.50;12.25;;;9.20;99.90;;;;;;4882263;29;20396;-79
2021/05/13 02:00:04;;;;;;;16.02;12.95;;;9.20;99.90;;;;;;4881970;29;20143;-79
2021/05/13 02:02:37;;;;;;;18.90;12.23;;;9.20;99.90;;;;;;4898102;29;20048;-80
2021/05/13 02:05:05;;;;;;;18.10;12.30;;;9.10;99.90;;;;;;4882112;29;20151;-80
2021/05/13 02:07:32;;;;;;;15.38;11.55;;;9.10;99.90;;;;;;4897495;29;20056;-79
2021/05/13 02:09:59;;;;;;;16.40;11.25;;;9.00;99.90;;;;;;4897388;29;20092;-79
2021/05/13 02:12:26;;;;;;;18.00;12.57;;;9.00;99.90;;;;;;4882007;29;20454;-80
2021/05/13 02:14:58;;;;;;;16.80;11.93;;;9.00;99.90;;;;;;4897802;29;20033;-80
2021/05/13 02:17:26;;;;;;;17.05;12.13;;;9.00;99.90;;;;;;4897301;29;20064;-79
2021/05/13 02:19:53;;;;;;;18.15;11.30;;;9.00;99.90;;;;;;4881799;29;20151;-79
2021/05/13 02:22:21;;;;;;;20.10;12.70;;;9.00;99.90;;;;;;4881864;29;20056;-79
2021/05/13 02:24:48;;;;;;;15.13;11.38;;;8.90;99.90;;;;;;4897264;29;20052;-79
2021/05/13 02:27:15;;;;;;;15.02;11.68;;;9.00;99.90;;;;;;4881458;29;20053;-79
2021/05/13 02:29:42;;;;;;;20.67;12.75;;;8.90;99.90;;;;;;4881469;29;20045;-80
2021/05/13 02:32:15;;;;;;;18.27;13.20;;;8.90;99.90;;;;;;4897051;29;20080;-79
2021/05/13 02:34:42;;;;;;;18.95;14.13;;;8.90;99.90;;;;;;4881591;29;20040;-80
2021/05/13 02:37:16;;;;;;;17.45;14.32;;;8.90;99.90;;;;;;4880917;29;20041;-79
2021/05/13 02:39:43;;;;;;;16.52;12.63;;;8.90;99.90;;;;;;4897244;29;20056;-80
2021/05/13 02:42:10;;;;;;;21.48;13.60;;;8.90;99.90;;;;;;4896983;29;20071;-80
2021/05/13 02:44:37;;;;;;;18.50;13.05;;;9.00;99.90;;;;;;4881482;29;20049;-80
2021/05/13 02:47:05;;;;;;;18.50;12.45;;;9.10;99.90;;;;;;4881321;29;20087;-79
2021/05/13 02:49:33;;;;;;;20.33;12.93;;;9.10;99.90;;;;;;4896462;29;20571;-79
2021/05/13 02:52:05;;;;;;;17.58;13.27;;;9.20;99.90;;;;;;4896046;29;20431;-80
2021/05/13 02:54:33;;;;;;;16.00;12.10;;;9.20;99.90;;;;;;4880976;29;20063;-80
2021/05/13 02:57:00;;;;;;;17.45;12.82;;;9.30;99.90;;;;;;4881144;29;20049;-80
2021/05/13 03:02:27;;;;;;;15.50;12.40;;;9.30;99.90;;;;;;4860681;29;20048;-79
2021/05/13 03:04:54;;;;;;;17.27;13.23;;;9.30;99.90;;;;;;4882776;29;20539;-78
2021/05/13 03:07:21;;;;;;;16.50;12.25;;;9.30;99.90;;;;;;4897678;29;20056;-77
2021/05/13 03:09:55;;;;;;;18.00;13.93;;;9.30;99.90;;;;;;4897511;29;20055;-78
2021/05/13 03:12:27;;;;;;;16.85;12.38;;;9.20;99.90;;;;;;4897103;29;20055;-78
2021/05/13 03:14:59;;;;;;;15.45;11.77;;;9.20;99.90;;;;;;4882835;29;20237;-78
2021/05/13 03:17:25;;;;;;;15.35;11.45;;;9.20;99.90;;;;;;4881793;29;20100;-79
2021/05/13 03:19:57;;;;;;;16.42;11.63;;;9.20;99.90;;;;;;4881815;29;20076;-77
2021/05/13 03:22:24;;;;;;;17.67;11.88;;;9.20;99.90;;;;;;4881799;29;20534;-78
2021/05/13 03:25:02;;;;;;;16.25;12.70;;;9.20;99.90;;;;;;4881720;29;20055;-78
2021/05/13 03:30:11;;;;;;;16.33;11.77;;;9.10;99.90;;;;;;4881581;29;20145;-78
2021/05/13 03:32:37;;;;;;;17.60;12.23;;;9.10;99.90;;;;;;4897413;29;20068;-78
2021/05/13 03:35:10;;;;;;;15.38;11.50;;;9.10;99.90;;;;;;4881666;29;20110;-78
2021/05/13 03:37:42;;;;;;;17.20;12.45;;;9.00;99.90;;;;;;4896045;29;20665;-78
2021/05/13 03:40:14;;;;;;;18.90;12.13;;;9.00;99.90;;;;;;4881215;29;20045;-78
2021/05/13 03:42:46;;;;;;;14.73;11.70;;;9.00;99.90;;;;;;4897262;29;20131;-78
2021/05/13 03:45:13;;;;;;;16.02;11.95;;;9.00;99.90;;;;;;4881297;29;20143;-79
2021/05/13 03:47:45;;;;;;;17.30;11.77;;;8.90;99.90;;;;;;4881539;29;20070;-78
2021/05/13 03:50:17;;;;;;;15.32;10.82;;;8.80;99.90;;;;;;4881038;29;20067;-78
2021/05/13 03:52:49;;;;;;;15.50;11.32;;;8.70;99.90;;;;;;4881254;29;20071;-78
2021/05/13 03:55:16;;;;;;;16.02;11.07;;;8.70;99.90;;;;;;4896946;29;20060;-78
2021/05/13 03:57:43;;;;;;;14.88;11.52;;;8.60;99.90;;;;;;4896784;29;20143;-78
2021/05/13 04:00:17;;;;;;;17.50;11.70;;;8.50;99.90;;;;;;4895776;29;20048;-78
2021/05/13 04:02:49;;;;;;;21.52;11.80;;;8.40;99.90;;;;;;4880972;29;20132;-78
2021/05/13 04:05:16;;;;;;;20.38;12.30;;;8.50;99.90;;;;;;4896461;29;20056;-80
2021/05/13 04:07:48;;;;;;;20.75;12.50;;;8.50;99.90;;;;;;4897883;29;20586;-78
2021/05/13 04:10:20;;;;;;;19.95;13.48;;;8.50;99.90;;;;;;4887738;29;20055;-80
2021/05/13 04:12:55;;;;;;;20.25;12.98;;;8.40;99.90;;;;;;4904203;29;20049;-80
2021/05/13 04:15:22;;;;;;;17.48;13.27;;;8.40;99.90;;;;;;4905060;29;20065;-79
2021/05/13 04:17:54;;;;;;;18.13;12.98;;;8.40;99.90;;;;;;4886058;29;20103;-78
2021/05/13 04:20:21;;;;;;;17.00;13.07;;;8.40;99.90;;;;;;4896545;29;20072;-78
2021/05/13 04:22:48;;;;;;;19.75;13.45;;;8.50;99.90;;;;;;4880809;29;20143;-78
2021/05/13 04:25:20;;;;;;;16.23;11.80;;;8.50;99.90;;;;;;4881564;29;20049;-78
2021/05/13 04:27:48;;;;;;;15.18;11.40;;;8.60;99.90;;;;;;4881019;29;20052;-78
2021/05/13 04:30:16;;;;;;;17.23;12.85;;;8.70;99.90;;;;;;4880731;29;20096;-78
2021/05/13 04:32:43;;;;;;;18.35;12.27;;;8.80;99.90;;;;;;4880686;29;20486;-78
2021/05/13 04:35:17;;;;;;;15.50;12.30;;;8.70;99.90;;;;;;4881806;29;20508;-78
2021/05/13 04:37:44;;;;;;;18.38;12.73;;;8.60;99.90;;;;;;4880786;29;20049;-78
2021/05/13 04:40:16;;;;;;;18.58;13.57;;;8.50;99.90;;;;;;4880782;29;20396;-79
2021/05/13 04:42:44;;;;;;;16.88;12.90;;;8.50;99.90;;;;;;4881147;29;20116;-78
2021/05/13 04:45:16;;;;;;;18.30;12.43;;;8.40;99.90;;;;;;4880767;29;20048;-78
2021/05/13 04:50:12;;;;;;;18.35;14.80;;;8.60;99.90;;;;;;4882250;29;20067;-79
2021/05/13 04:52:40;;;;;;;19.63;13.98;;;8.60;99.90;;;;;;4869291;29;20482;-78
2021/05/13 04:55:08;;;;;;;17.10;12.93;;;8.60;99.90;;;;;;4884514;29;20152;-78
2021/05/13 04:57:37;;;;;;;18.45;12.20;;;8.70;99.90;;;;;;4900097;29;20079;-78
2021/05/13 05:00:07;;;;;;;15.57;13.15;;;8.80;99.90;;;;;;4884212;29;20056;-78
2021/05/13 05:02:35;;;;;;;17.52;12.63;;;8.90;99.90;;;;;;4899950;29;20496;-78
2021/05/13 05:05:08;;;;;;;15.95;11.77;;;9.10;99.90;;;;;;4869767;29;20570;-78
2021/05/13 05:07:40;;;;;;;21.02;15.40;;;9.10;99.90;;;;;;4884464;29;20053;-78
2021/05/13 05:10:08;;;;;;;20.15;14.25;;;9.10;99.90;;;;;;4883900;29;20393;-78
2021/05/13 05:12:35;;;;;;;19.40;14.13;;;9.10;99.90;;;;;;4884224;29;20565;-78
2021/05/13 05:15:03;;;;;;;17.15;13.95;;;9.10;99.90;;;;;;4884157;29;20139;-78
2021/05/13 05:17:31;;;;;;;18.83;14.52;;;9.10;99.90;;;;;;4899976;29;20055;-78
2021/05/13 05:19:58;;;;;;;20.38;14.68;;;9.10;99.90;;;;;;4868705;29;20048;-78
2021/05/13 05:22:30;;;;;;;17.35;13.10;;;9.10;99.90;;;;;;4884166;29;20045;-78
2021/05/13 05:24:57;;;;;;;19.10;14.88;;;9.10;99.90;;;;;;4868411;29;20478;-78
2021/05/13 05:27:24;;;;;;;19.50;14.02;;;9.10;99.90;;;;;;4883136;29;20057;-78
2021/05/13 05:29:56;;;;;;;17.73;13.30;;;9.10;99.90;;;;;;4883675;29;20120;-78
2021/05/13 05:32:23;;;;;;;18.45;13.82;;;9.10;99.90;;;;;;4883026;29;20441;-78
2021/05/13 05:34:55;;;;;;;18.40;13.45;;;9.10;99.90;;;;;;4884010;29;20049;-78
2021/05/13 05:37:26;;;;;;;18.05;13.55;;;9.20;99.90;;;;;;4883528;29;20388;-78
2021/05/13 05:39:58;;;;;;;19.48;13.20;;;9.20;99.90;;;;;;4867965;29;20528;-77
2021/05/13 05:42:25;;;;;;;16.52;12.77;;;9.30;99.90;;;;;;4883016;29;20092;-78
2021/05/13 05:44:57;;;;;;;19.58;13.38;;;9.30;99.90;;;;;;4883102;29;20049;-79
2021/05/13 05:47:23;;;;;;;18.00;13.32;;;9.40;99.90;;;;;;4882524;29;20151;-78
2021/05/13 05:49:55;;;;;;;20.58;13.32;;;9.40;99.90;;;;;;4882584;29;20055;-77
2021/05/13 05:52:22;;;;;;;18.83;13.45;;;9.40;99.90;;;;;;4883046;29;20075;-78
2021/05/13 05:54:48;;;;;;;17.50;13.52;;;9.50;99.90;;;;;;4882712;29;20087;-78
2021/05/13 05:57:20;;;;;;;21.10;13.68;;;9.50;99.90;;;;;;4882490;29;20044;-78
2021/05/13 05:59:47;;;;;;;20.40;14.00;;;9.50;99.90;;;;;;4882733;29;20504;-82
2021/05/13 06:02:19;;;;;;;23.80;14.35;;;9.50;99.90;;;;;;4866859;29;20053;-78
2021/05/13 06:04:46;;;;;;;17.30;13.05;;;9.60;99.90;;;;;;4882678;29;20567;-78
2021/05/13 06:07:12;;;;;;;16.85;13.32;;;9.60;99.90;;;;;;4882708;29;20143;-78
2021/05/13 06:09:44;;;;;;;16.90;13.45;;;9.70;99.90;;;;;;4867532;29;20051;-78
2021/05/13 06:12:16;;;;;;;18.60;13.55;;;9.70;99.90;;;;;;4867780;29;20052;-78
2021/05/13 06:14:49;;;;;;;19.67;13.48;;;9.80;99.90;;;;;;4882291;29;20143;-78
2021/05/13 06:17:16;;;;;;;18.55;14.10;;;9.80;99.90;;;;;;4882561;29;20119;-78
2021/05/13 06:19:48;;;;;;;17.33;13.20;;;9.80;99.90;;;;;;4867635;29;20513;-78
2021/05/13 06:22:15;;;;;;;16.10;12.95;;;9.90;99.90;;;;;;4882186;29;20080;-78
2021/05/13 06:24:46;;;;;;;18.73;14.25;;;9.90;99.90;;;;;;4882355;29;20044;-77
2021/05/13 06:27:20;;;;;;;16.48;13.40;;;9.90;99.90;;;;;;4881959;29;20147;-77
2021/05/13 06:29:48;;;;;;;18.83;13.07;;;10.00;99.90;;;;;;4882157;29;20148;-78
2021/05/13 06:32:16;;;;;;;19.20;13.38;;;10.00;99.90;;;;;;4881530;29;20079;-78
2021/05/13 06:34:47;;;;;;;17.42;13.38;;;10.10;99.90;;;;;;4881811;29;20044;-78
2021/05/13 06:37:14;;;;;;;18.85;13.98;;;10.10;99.90;;;;;;4881805;29;20119;-78
2021/05/13 06:39:46;;;;;;;19.63;13.75;;;10.20;99.90;;;;;;4882827;29;20056;-79
2021/05/13 06:42:18;;;;;;;21.23;14.32;;;10.20;99.90;;;;;;4882324;29;20055;-78
2021/05/13 06:44:44;;;;;;;24.23;21.02;;;10.20;99.90;;;;;;4871078;29;20049;-78
2021/05/13 06:47:16;;;;;;;16.67;11.25;;;10.30;99.90;;;;;;4892271;29;20056;-78
2021/05/13 06:49:43;;;;;;;15.98;10.75;;;10.30;99.90;;;;;;4900436;29;20076;-78
2021/05/13 06:52:10;;;;;;;14.93;11.90;;;10.40;99.90;;;;;;4900020;29;20048;-78
2021/05/13 06:54:43;;;;;;;16.05;12.57;;;10.40;99.90;;;;;;4885207;29;20048;-78
2021/05/13 06:57:15;;;;;;;14.13;11.65;;;10.40;99.90;;;;;;4914951;29;20050;-78
2021/05/13 06:59:46;;;;;;;13.65;10.65;;;10.40;99.90;;;;;;4885093;29;20052;-78
2021/05/13 07:02:18;;;;;;;13.40;10.10;;;10.50;99.90;;;;;;4914822;29;20394;-77
2021/05/13 07:04:45;;;;;;;16.38;9.45;;;10.60;99.90;;;;;;4884360;29;20139;-77
2021/05/13 07:07:18;;;;;;;16.13;9.65;;;10.60;99.90;;;;;;4884908;29;20044;-78
2021/05/13 07:09:49;;;;;;;13.35;10.70;;;10.60;99.90;;;;;;4899792;29;20051;-78
2021/05/13 07:12:21;;;;;;;13.20;9.07;;;10.70;99.90;;;;;;4916661;29;20119;-78
2021/05/13 07:14:54;;;;;;;13.35;9.63;;;10.70;99.90;;;;;;4899281;29;20067;-77
2021/05/13 07:17:25;;;;;;;13.07;9.27;;;10.70;99.90;;;;;;4899842;29;20051;-78
2021/05/13 07:19:57;;;;;;;10.90;8.63;;;10.80;99.90;;;;;;4887889;29;20511;-78
2021/05/13 07:22:24;;;;;;;12.13;8.80;;;10.80;99.90;;;;;;4905762;29;20134;-79
2021/05/13 07:24:50;;;;;;;12.85;9.55;;;10.90;99.90;;;;;;4904401;29;20079;-79
2021/05/13 07:27:22;;;;;;;12.20;9.73;;;10.90;99.90;;;;;;4889363;29;20115;-78
2021/05/13 07:29:49;;;;;;;14.73;10.27;;;10.90;99.90;;;;;;4899340;29;20044;-79
2021/05/13 07:32:16;;;;;;;12.43;10.13;;;11.00;99.90;;;;;;4914997;29;20141;-78
2021/05/13 07:34:48;;;;;;;14.20;10.07;;;11.00;99.90;;;;;;4899490;29;20080;-78
2021/05/13 07:37:14;;;;;;;13.52;10.18;;;10.90;99.90;;;;;;4930910;29;20119;-78
2021/05/13 07:39:42;;;;;;;18.70;11.70;;;10.80;99.90;;;;;;4883886;29;20491;-77
2021/05/13 07:42:08;;;;;;;16.85;12.10;;;10.80;99.90;;;;;;4899412;29;20087;-78
2021/05/13 07:44:35;;;;;;;15.43;12.10;;;10.80;99.90;;;;;;4883969;29;20052;-78
2021/05/13 07:47:03;;;;;;;17.83;11.98;;;10.70;99.90;;;;;;4930911;29;20131;-78
2021/05/13 07:49:30;;;;;;;16.45;11.32;;;10.80;99.90;;;;;;4914861;29;20138;-78
2021/05/13 07:51:56;;;;;;;14.25;10.02;;;10.90;99.90;;;;;;4928493;29;20119;-77
2021/05/13 07:54:29;;;;;;;16.83;11.50;;;10.90;99.90;;;;;;4887691;29;20054;-82
2021/05/13 07:56:55;;;;;;;18.75;11.45;;;10.90;99.90;;;;;;4888802;29;20059;-82
2021/05/13 07:59:22;;;;;;;14.02;11.20;;;10.90;99.90;;;;;;4887902;29;20051;-81
2021/05/13 08:01:49;;;;;;;13.25;10.98;;;11.00;99.90;;;;;;4888742;29;20071;-81
2021/05/13 08:04:17;;;;;;;16.05;11.13;;;11.00;99.90;;;;;;4888576;29;20058;-78
2021/05/13 08:06:45;;;;;;;13.73;11.07;;;11.00;99.90;;;;;;4884394;29;20044;-78
2021/05/13 08:09:15;;;;;;;14.60;11.35;;;11.00;99.90;;;;;;4880626;29;20503;-79
2021/05/13 08:11:51;;;;;;;13.63;10.38;;;11.10;99.90;;;;;;4926452;29;20040;-79
2021/05/13 08:14:18;;;;;;;12.50;10.05;;;11.20;99.90;;;;;;4872577;29;20055;-78
2021/05/13 08:16:49;;;;;;;13.15;9.80;;;11.30;99.90;;;;;;4885821;29;20060;-78
2021/05/13 08:19:20;;;;;;;12.15;9.15;;;11.50;99.90;;;;;;4868579;29;20507;-78
2021/05/13 08:21:58;;;;;;;10.50;7.70;;;11.50;99.90;;;;;;4867464;29;20085;-78
2021/05/13 08:24:26;;;;;;;13.48;7.47;;;11.70;99.90;;;;;;4920764;29;20048;-78
2021/05/13 08:26:58;;;;;;;11.35;7.72;;;11.80;99.90;;;;;;4916718;29;20048;-78
2021/05/13 08:29:34;;;;;;;11.20;7.50;;;11.90;99.90;;;;;;4899699;29;20138;-81
2021/05/13 08:32:01;;;;;;;9.73;7.38;;;12.10;99.90;;;;;;4899918;29;20055;-78
2021/05/13 08:34:28;;;;;;;11.68;8.25;;;12.20;99.90;;;;;;4900412;29;20047;-78
2021/05/13 08:37:02;;;;;;;9.10;7.72;;;12.30;99.90;;;;;;4892295;29;20104;-78
2021/05/13 08:39:29;;;;;;;8.18;6.32;;;12.40;99.90;;;;;;4887073;29;20079;-78
2021/05/13 08:42:00;;;;;;;9.15;6.88;;;12.50;99.90;;;;;;4883852;29;20059;-78
2021/05/13 08:44:28;;;;;;;8.13;5.35;;;12.70;99.90;;;;;;4899712;29;20131;-78
2021/05/13 08:47:01;;;;;;;9.65;4.43;;;13.00;99.90;;;;;;4899203;29;20496;-78
2021/05/13 08:49:28;;;;;;;7.22;4.43;;;12.80;99.90;;;;;;4891261;29;20047;-78
2021/05/13 08:51:55;;;;;;;10.25;4.80;;;12.90;99.90;;;;;;4919063;29;20059;-78
2021/05/13 08:54:29;;;;;;;7.82;5.85;;;13.00;99.90;;;;;;4919542;29;20578;-78
2021/05/13 08:56:56;;;;;;;5.45;4.72;;;13.10;99.90;;;;;;4935453;29;20530;-78
2021/05/13 08:59:28;;;;;;;4.47;3.67;;;13.00;99.90;;;;;;4918736;29;20052;-78
2021/05/13 09:01:58;;;;;;;4.47;3.20;;;13.10;99.90;;;;;;4889617;29;20045;-78
2021/05/13 09:04:41;;;;;;;4.20;3.13;;;13.20;99.90;;;;;;4881022;29;20418;-78
2021/05/13 09:07:15;;;;;;;6.10;4.40;;;13.40;99.90;;;;;;4880283;29;20057;-78
2021/05/13 09:10:12;;;;;;;6.35;4.60;;;13.60;99.90;;;;;;4896644;29;20551;-78
2021/05/13 09:12:47;;;;;;;5.80;3.30;;;13.70;99.90;;;;;;4896745;29;20068;-78
2021/05/13 09:15:20;;;;;;;2.72;2.10;;;13.60;99.90;;;;;;4882775;29;20082;-78
2021/05/13 09:17:50;;;;;;;5.28;2.60;;;13.40;99.90;;;;;;4898439;29;20076;-78
2021/05/13 09:20:32;;;;;;;5.28;3.22;;;13.50;99.90;;;;;;4882888;29;20060;-78
2021/05/13 09:23:12;;;;;;;5.57;3.75;;;13.60;99.90;;;;;;4875726;29;20135;-78
2021/05/13 09:25:44;;;;;;;6.13;3.40;;;13.70;99.90;;;;;;4895950;29;20052;-78
2021/05/13 09:28:11;;;;;;;5.60;3.75;;;13.90;99.90;;;;;;4898372;29;20068;-78
2021/05/13 09:30:45;;;;;;;7.43;3.97;;;13.90;99.90;;;;;;4881418;29;20044;-78
2021/05/13 09:33:27;;;;;;;3.40;2.60;;;13.80;99.90;;;;;;4877962;29;20044;-78
2021/05/13 09:36:18;;;;;;;3.30;2.63;;;13.60;99.90;;;;;;4899735;29;20044;-78
2021/05/13 09:38:45;;;;;;;5.18;3.20;;;13.50;99.90;;;;;;4890228;29;20193;-78
2021/05/13 09:41:12;;;;;;;4.40;2.90;;;13.60;99.90;;;;;;4895585;29;20048;-79
2021/05/13 09:43:44;;;;;;;7.18;3.15;;;13.80;99.90;;;;;;4905038;29;20067;-78
2021/05/13 09:46:11;;;;;;;5.13;4.00;;;14.10;99.90;;;;;;4884905;29;20049;-79
2021/05/13 09:48:46;;;;;;;4.60;3.67;;;14.30;99.90;;;;;;4883932;29;20570;-78
2021/05/13 09:51:23;;;;;;;5.15;3.50;;;14.40;99.90;;;;;;4883477;29;20127;-78
2021/05/13 09:54:15;;;;;;;7.60;3.50;;;14.50;99.90;;;;;;4883113;29;20062;-78
2021/05/13 09:56:54;;;;;;;8.77;3.15;;;14.40;99.90;;;;;;4890547;29;20044;-78
2021/05/13 09:59:31;;;;;;;4.90;3.05;;;14.30;99.90;;;;;;4869006;29;20037;-78
2021/05/13 10:02:00;;;;;;;6.38;3.83;;;14.20;99.90;;;;;;4885801;29;20659;-78
2021/05/13 10:04:27;;;;;;;6.68;4.32;;;14.10;99.90;;;;;;4901650;29;20134;-78
2021/05/13 10:06:54;;;;;;;5.50;3.80;;;14.00;99.90;;;;;;4881330;29;20055;-78
2021/05/13 10:09:26;;;;;;;12.18;4.25;;;14.00;99.90;;;;;;4883988;29;20117;-78
2021/05/13 10:12:00;;;;;;;4.07;3.30;;;13.90;99.90;;;;;;4896907;29;20143;-78
2021/05/13 10:14:28;;;;;;;4.55;3.50;;;13.80;99.90;;;;;;4891775;29;20048;-78
2021/05/13 10:16:59;;;;;;;5.88;3.70;;;13.70;99.90;;;;;;4908390;29;20139;-78
2021/05/13 10:19:30;;;;;;;5.90;3.20;;;13.70;99.90;;;;;;4904787;29;20049;-79
2021/05/13 10:22:01;;;;;;;8.40;3.50;;;13.70;99.90;;;;;;4879820;29;20130;-79
2021/05/13 10:24:28;;;;;;;4.20;3.20;;;13.70;99.90;;;;;;4897009;29;20184;-79
2021/05/13 10:26:56;;;;;;;3.85;3.08;;;13.60;99.90;;;;;;4875898;29;20044;-78
2021/05/13 10:29:31;;;;;;;4.00;2.80;;;13.60;99.90;;;;;;4899649;29;20048;-78
2021/05/13 10:32:22;;;;;;;3.10;2.60;;;13.60;99.90;;;;;;4918331;29;20048;-78
2021/05/13 10:35:05;;;;;;;4.20;3.63;;;13.60;99.90;;;;;;4886697;29;20056;-79
2021/05/13 10:37:36;;;;;;;7.65;3.42;;;13.70;99.90;;;;;;4886575;29;20054;-78
2021/05/13 10:40:15;;;;;;;5.97;3.85;;;13.70;99.90;;;;;;4903050;29;20115;-78
2021/05/13 10:43:03;;;;;;;8.35;4.43;;;13.90;99.90;;;;;;4902094;29;20541;-78
2021/05/13 10:45:34;;;;;;;6.10;3.13;;;14.00;99.90;;;;;;4899948;29;20056;-78
2021/05/13 10:48:27;;;;;;;5.95;3.40;;;14.10;99.90;;;;;;4907467;29;20036;-78
2021/05/13 10:51:01;;;;;;;6.57;4.07;;;14.10;99.90;;;;;;4902199;29;20114;-79
2021/05/13 10:53:37;;;;;;;3.75;3.30;;;14.20;99.90;;;;;;4887814;29;20051;-78
2021/05/13 10:56:33;;;;;;;4.05;3.10;;;14.30;99.90;;;;;;4881676;29;20504;-78
2021/05/13 10:59:08;;;;;;;5.53;3.90;;;14.40;99.90;;;;;;4899569;29;20499;-78
2021/05/13 11:01:42;;;;;;;5.78;2.80;;;14.50;99.90;;;;;;4884193;29;20140;-80
2021/05/13 11:04:22;;;;;;;4.32;2.60;;;14.60;99.90;;;;;;4868878;29;20063;-78
2021/05/13 11:06:59;;;;;;;3.72;2.58;;;14.70;99.90;;;;;;4884036;29;20053;-78
2021/05/13 11:09:43;;;;;;;5.53;2.38;;;15.10;99.90;;;;;;4870319;29;20478;-78
2021/05/13 11:12:17;;;;;;;3.05;1.90;;;15.20;99.90;;;;;;4883564;29;20052;-78
2021/05/13 11:20:40;;;;;;;3.78;2.30;;;15.40;99.90;;;;;;4908448;29;20055;-78
2021/05/13 11:23:21;;;;;;;3.17;2.30;;;15.40;99.90;;;;;;4903008;29;20115;-78
2021/05/13 11:26:02;;;;;;;2.58;1.88;;;15.40;99.90;;;;;;4903513;29;20055;-78
2021/05/13 11:28:43;;;;;;;2.72;2.10;;;15.60;99.90;;;;;;4888352;29;20112;-78
2021/05/13 11:31:18;;;;;;;4.85;2.05;;;15.80;99.90;;;;;;4889220;29;20072;-78
2021/05/13 11:33:52;;;;;;;4.05;2.25;;;15.90;99.90;;;;;;4892355;29;20418;-78
2021/05/13 11:36:27;;;;;;;4.88;2.10;;;16.00;99.90;;;;;;4897446;29;20063;-79
2021/05/13 11:38:55;;;;;;;2.58;2.20;;;16.10;99.90;;;;;;4880084;29;20067;-78
2021/05/13 11:41:27;;;;;;;5.47;2.55;;;16.20;99.90;;;;;;4898847;29;20053;-78
2021/05/13 11:43:59;;;;;;;4.47;2.10;;;16.20;99.90;;;;;;4881603;29;20411;-78
2021/05/13 11:46:31;;;;;;;2.63;1.90;;;16.20;99.90;;;;;;4881854;29;20054;-78
2021/05/13 11:48:58;;;;;;;3.85;1.60;;;16.10;99.90;;;;;;4866193;29;20151;-78
2021/05/13 11:51:32;;;;;;;2.78;1.90;;;16.10;99.90;;;;;;4882401;29;20052;-78
2021/05/13 11:54:02;;;;;;;2.53;1.50;;;16.20;99.90;;;;;;4866229;29;20134;-78
2021/05/13 11:56:38;;;;;;;1.70;1.40;;;16.40;99.90;;;;;;4881598;29;20147;-78
2021/05/13 11:59:13;;;;;;;2.25;1.30;;;16.50;99.90;;;;;;4881007;29;20056;-78
2021/05/13 12:01:46;;;;;;;2.30;1.00;;;16.70;99.90;;;;;;4903112;29;20123;-78
2021/05/13 12:04:23;;;;;;;2.45;1.27;;;16.70;99.90;;;;;;4883877;29;20135;-79
2021/05/13 12:06:55;;;;;;;6.55;1.20;;;16.60;99.90;;;;;;4882453;29;20052;-78
2021/05/13 12:09:30;;;;;;;1.55;0.85;;;16.40;99.90;;;;;;4897777;29;20044;-81
2021/05/13 12:11:57;;;;;;;3.47;1.83;;;15.90;99.90;;;;;;4881854;29;20520;-81
2021/05/13 12:14:32;;;;;;;3.88;2.45;;;15.60;99.90;;;;;;4866543;29;20049;-80
2021/05/13 12:17:10;;;;;;;4.93;3.00;;;15.40;99.90;;;;;;4882186;29;20144;-81
2021/05/13 12:19:43;;;;;;;4.10;2.03;;;15.10;99.90;;;;;;4866475;29;20048;-79
2021/05/13 12:25:06;;;;;;;1.70;1.10;;;14.70;99.90;;;;;;5046235;23;20052;-81
2021/05/13 12:27:39;;;;;;;2.40;0.65;;;14.60;99.90;;;;;;4900743;29;20052;-81
2021/05/13 12:30:08;;;;;;;1.17;0.60;;;14.60;99.90;;;;;;4915841;29;20422;-81
2021/05/13 12:32:36;;;;;;;0.95;0.60;;;14.50;99.90;;;;;;4866765;29;20127;-81
2021/05/13 12:35:30;;;;;;;1.30;0.70;;;14.40;99.90;;;;;;4866454;29;20127;-81
2021/05/13 12:38:18;;;;;;;0.90;0.60;;;14.40;99.90;;;;;;4882010;29;20119;-82
2021/05/13 12:40:48;;;;;;;2.15;1.80;;;14.50;99.90;;;;;;4881681;29;20415;-82
2021/05/13 12:43:18;;;;;;;4.05;2.00;;;14.40;99.90;;;;;;4880415;29;20041;-81
2021/05/13 12:45:50;;;;;;;2.25;1.80;;;14.50;99.90;;;;;;4881353;29;20472;-80
2021/05/13 12:48:25;;;;;;;4.32;2.28;;;14.60;99.90;;;;;;4880298;29;20140;-79
2021/05/13 12:51:03;;;;;;;5.70;2.92;;;14.60;99.90;;;;;;4879736;29;20052;-80
2021/05/13 12:53:45;;;;;;;4.07;2.80;;;14.70;99.90;;;;;;4879192;29;20068;-80
2021/05/13 12:56:31;;;;;;;3.08;2.78;;;14.70;99.90;;;;;;4880496;29;20060;-79
2021/05/13 12:59:10;;;;;;;3.85;2.63;;;14.70;99.90;;;;;;4888122;29;20077;-81
2021/05/13 13:01:55;;;;;;;4.75;2.33;;;14.60;99.90;;;;;;4886845;29;20064;-81
2021/05/13 13:04:22;;;;;;;5.22;2.88;;;14.60;99.90;;;;;;4885164;29;20135;-81
2021/05/13 13:07:04;;;;;;;3.17;2.20;;;14.60;99.90;;;;;;4883955;29;20053;-81
2021/05/13 13:09:36;;;;;;;2.92;2.67;;;14.60;99.90;;;;;;4880851;29;20143;-81
2021/05/13 13:12:10;;;;;;;3.13;2.00;;;14.70;99.90;;;;;;4883932;29;20107;-81
2021/05/13 13:14:41;;;;;;;3.40;2.10;;;14.80;99.90;;;;;;4894723;29;20048;-82
2021/05/13 13:17:26;;;;;;;3.35;1.70;;;14.90;99.90;;;;;;4888854;29;20052;-82
2021/05/13 13:20:08;;;;;;;1.90;1.70;;;15.00;99.90;;;;;;4888349;29;20052;-82
2021/05/13 13:22:37;;;;;;;2.40;1.55;;;15.10;99.90;;;;;;4888367;29;20079;-81